createdAt,value
2023-03-12T00:02:00.862Z,-3.00
2023-03-12T00:04:28.517Z,-3.00
2023-03-12T00:06:55.354Z,-3.00
2023-03-12T00:09:23.303Z,-3.10
2023-03-12T00:11:50.188Z,-3.00
2023-03-12T00:14:18.117Z,-3.00
2023-03-12T00:16:44.975Z,-3.10
2023-03-12T00:19:13.025Z,-3.10
2023-03-12T00:21:40.309Z,-3.10
2023-03-12T00:24:08.215Z,-3.20
2023-03-12T00:26:35.166Z,-3.20
2023-03-12T00:29:02.022Z,-3.20
2023-03-12T00:31:32.833Z,-3.20
2023-03-12T00:34:01.513Z,-3.20
2023-03-12T00:36:30.359Z,-3.20
2023-03-12T00:38:58.481Z,-3.20
2023-03-12T00:41:26.429Z,-3.30
2023-03-12T00:43:53.350Z,-3.40
2023-03-12T00:46:21.156Z,-3.30
2023-03-12T00:48:48.058Z,-3.40
2023-03-12T00:51:15.469Z,-3.40
2023-03-12T00:53:42.297Z,-3.40
2023-03-12T00:56:09.353Z,-3.50
2023-03-12T00:58:36.162Z,-3.50
2023-03-12T01:01:03.351Z,-3.50
2023-03-12T01:03:30.194Z,-3.60
2023-03-12T01:05:57.073Z,-3.50
2023-03-12T01:08:24.728Z,-3.60
2023-03-12T01:10:51.734Z,-3.60
2023-03-12T01:13:18.787Z,-3.60
2023-03-12T01:15:45.579Z,-3.60
2023-03-12T01:18:12.568Z,-3.60
2023-03-12T01:20:40.793Z,-3.60
2023-03-12T01:23:07.838Z,-3.60
2023-03-12T01:25:34.989Z,-3.50
2023-03-12T01:28:02.156Z,-3.50
2023-03-12T01:30:30.621Z,-3.50
2023-03-12T01:32:57.703Z,-3.50
2023-03-12T01:35:24.839Z,-3.50
2023-03-12T01:37:53.282Z,-3.40
2023-03-12T01:40:25.744Z,-3.40
2023-03-12T01:42:54.632Z,-3.30
2023-03-12T01:45:52.930Z,-3.30
2023-03-12T01:48:20.864Z,-3.30
2023-03-12T01:50:48.204Z,-3.20
2023-03-12T01:53:15.095Z,-3.20
2023-03-12T01:55:42.015Z,-3.20
2023-03-12T01:58:09.652Z,-3.10
2023-03-12T02:00:36.452Z,-3.10
2023-03-12T02:03:08.687Z,-3.00
2023-03-12T02:05:43.787Z,-3.00
2023-03-12T02:08:12.774Z,-2.90
2023-03-12T02:10:39.834Z,-2.90
2023-03-12T02:13:07.050Z,-2.80
2023-03-12T02:15:35.963Z,-2.80
2023-03-12T02:18:07.168Z,-2.80
2023-03-12T02:20:38.296Z,-2.80
2023-03-12T02:23:26.955Z,-2.80
2023-03-12T02:25:56.470Z,-2.70
2023-03-12T02:28:28.047Z,-2.70
2023-03-12T02:30:59.325Z,-2.60
2023-03-12T02:33:26.354Z,-2.60
2023-03-12T02:35:54.244Z,-2.50
2023-03-12T02:38:32.033Z,-2.50
2023-03-12T02:41:03.942Z,-2.40
2023-03-12T02:43:30.896Z,-2.40
2023-03-12T02:45:57.871Z,-2.30
2023-03-12T02:48:24.714Z,-2.30
2023-03-12T02:50:51.446Z,-2.30
2023-03-12T02:53:18.210Z,-2.20
2023-03-12T02:55:44.963Z,-2.20
2023-03-12T02:58:11.670Z,-2.20
2023-03-12T03:00:38.641Z,-2.10
2023-03-12T03:03:05.508Z,-2.10
2023-03-12T03:05:32.361Z,-2.00
2023-03-12T03:07:59.226Z,-2.00
2023-03-12T03:10:26.002Z,-2.00
2023-03-12T03:12:52.861Z,-1.90
2023-03-12T03:15:19.799Z,-1.90
2023-03-12T03:17:46.645Z,-1.90
2023-03-12T03:20:13.609Z,-1.90
2023-03-12T03:22:40.629Z,-1.80
2023-03-12T03:25:09.813Z,-1.80
2023-03-12T03:27:36.900Z,-1.80
2023-03-12T03:30:04.339Z,-1.80
2023-03-12T03:32:31.239Z,-1.80
2023-03-12T03:34:58.102Z,-1.80
2023-03-12T03:37:24.889Z,-1.70
2023-03-12T03:39:51.647Z,-1.70
2023-03-12T03:42:18.527Z,-1.80
2023-03-12T03:44:45.391Z,-1.80
2023-03-12T03:47:12.137Z,-1.80
2023-03-12T03:49:38.963Z,-1.80
2023-03-12T03:52:06.453Z,-1.80
2023-03-12T03:54:33.963Z,-1.80
2023-03-12T03:57:00.827Z,-1.80
2023-03-12T03:59:27.699Z,-1.80
2023-03-12T05:00:10.226Z,-1.00
2023-03-12T05:02:37.816Z,-1.00
2023-03-12T05:05:05.239Z,-1.00
2023-03-12T05:07:32.092Z,-0.90
2023-03-12T05:09:59.140Z,-0.90
2023-03-12T05:12:26.115Z,-0.80
2023-03-12T05:14:52.996Z,-0.80
2023-03-12T05:17:19.941Z,-0.80
2023-03-12T05:19:46.938Z,-0.70
2023-03-12T05:22:13.744Z,-0.70
2023-03-12T05:24:40.747Z,-0.60
2023-03-12T05:27:08.577Z,-0.70
2023-03-12T05:29:36.047Z,-0.60
2023-03-12T05:32:03.496Z,-0.60
2023-03-12T05:34:31.372Z,-0.50
2023-03-12T05:36:58.418Z,-0.40
2023-03-12T05:39:26.433Z,-0.40
2023-03-12T05:41:57.049Z,-0.40
2023-03-12T05:44:25.425Z,-0.40
2023-03-12T05:46:53.780Z,-0.40
2023-03-12T05:49:22.584Z,-0.40
2023-03-12T05:51:51.227Z,-0.30
2023-03-12T05:54:18.618Z,-0.30
2023-03-12T05:56:48.931Z,-0.30
2023-03-12T05:59:15.969Z,-0.30
2023-03-12T06:01:43.388Z,-0.40
2023-03-12T06:04:10.170Z,-0.30
2023-03-12T06:06:38.264Z,-0.30
2023-03-12T06:09:05.318Z,-0.20
2023-03-12T06:11:34.229Z,-0.10
2023-03-12T06:14:01.000Z,0.00
2023-03-12T06:16:29.684Z,0.00
2023-03-12T06:18:58.769Z,0.00
2023-03-12T06:21:28.432Z,0.00
2023-03-12T06:23:55.463Z,0.00
2023-03-12T06:26:23.279Z,0.10
2023-03-12T06:28:51.266Z,0.10
2023-03-12T06:31:18.581Z,0.20
2023-03-12T06:33:45.542Z,0.20
2023-03-12T06:36:12.886Z,0.30
2023-03-12T06:38:41.162Z,0.30
2023-03-12T06:41:11.346Z,0.30
2023-03-12T06:43:39.324Z,0.40
2023-03-12T06:46:09.850Z,0.40
2023-03-12T06:48:37.341Z,0.40
2023-03-12T06:51:04.805Z,0.40
2023-03-12T06:53:32.982Z,0.40
2023-03-12T06:56:00.000Z,0.50
2023-03-12T06:58:27.031Z,0.60
2023-03-12T07:00:55.363Z,0.70
2023-03-12T07:03:22.680Z,0.90
2023-03-12T07:05:50.982Z,0.90
2023-03-12T07:08:18.745Z,1.00
2023-03-12T07:10:46.341Z,1.20
2023-03-12T07:13:13.484Z,1.30
2023-03-12T07:15:40.612Z,1.40
2023-03-12T07:18:11.206Z,1.40
2023-03-12T07:20:40.757Z,1.30
2023-03-12T07:23:08.335Z,1.40
2023-03-12T07:25:37.379Z,1.50
2023-03-12T07:28:04.897Z,1.50
2023-03-12T07:30:33.598Z,1.60
2023-03-12T07:33:02.573Z,1.60
2023-03-12T07:35:30.363Z,1.80
2023-03-12T07:37:57.666Z,1.80
2023-03-12T07:40:24.506Z,2.00
2023-03-12T07:42:52.155Z,2.10
2023-03-12T07:45:20.084Z,2.10
2023-03-12T07:47:48.242Z,2.20
2023-03-12T07:50:16.431Z,2.20
2023-03-12T07:52:43.984Z,2.10
2023-03-12T07:55:11.598Z,2.20
2023-03-12T07:57:39.014Z,2.20
2023-03-12T08:00:07.999Z,2.40
2023-03-12T08:02:35.178Z,2.50
2023-03-12T08:05:02.315Z,2.70
2023-03-12T08:07:32.349Z,2.80
2023-03-12T08:10:00.296Z,2.90
2023-03-12T08:12:28.270Z,2.80
2023-03-12T08:14:55.262Z,2.90
2023-03-12T08:17:22.435Z,3.10
2023-03-12T08:19:49.284Z,3.20
2023-03-12T08:22:16.280Z,3.40
2023-03-12T08:24:43.206Z,3.60
2023-03-12T08:27:12.184Z,3.80
2023-03-12T08:29:40.261Z,3.90
2023-03-12T08:32:08.340Z,4.00
2023-03-12T08:34:35.524Z,4.10
2023-03-12T08:37:03.039Z,4.30
2023-03-12T08:39:30.252Z,4.50
2023-03-12T08:41:57.164Z,4.90
2023-03-12T08:44:24.791Z,5.00
2023-03-12T08:46:52.065Z,5.20
2023-03-12T08:49:19.562Z,5.30
2023-03-12T08:51:46.741Z,5.20
2023-03-12T08:54:13.597Z,5.30
2023-03-12T08:56:43.639Z,5.40
2023-03-12T08:59:12.797Z,5.20
2023-03-12T09:01:43.563Z,5.10
2023-03-12T09:04:11.057Z,5.20
2023-03-12T09:06:38.651Z,5.20
2023-03-12T09:09:05.854Z,5.30
2023-03-12T09:11:33.939Z,5.30
2023-03-12T09:14:39.513Z,5.40
2023-03-12T09:16:50.138Z,5.50
2023-03-12T09:19:17.160Z,5.80
2023-03-12T09:21:44.064Z,6.10
2023-03-12T09:24:12.170Z,6.40
2023-03-12T09:26:38.997Z,6.40
2023-03-12T09:29:05.922Z,6.50
2023-03-12T09:31:32.970Z,6.40
2023-03-12T09:33:59.836Z,6.40
2023-03-12T09:36:26.737Z,6.30
2023-03-12T09:38:54.865Z,6.20
2023-03-12T09:41:29.799Z,6.20
2023-03-12T09:44:16.723Z,6.20
2023-03-12T09:46:50.024Z,6.20
2023-03-12T09:49:26.165Z,6.00
2023-03-12T09:51:56.973Z,5.90
2023-03-12T09:54:28.436Z,5.90
2023-03-12T09:57:00.593Z,6.00
2023-03-12T09:59:27.525Z,6.00
2023-03-12T10:01:58.370Z,5.90
2023-03-12T10:04:32.480Z,6.00
2023-03-12T10:07:10.125Z,6.20
2023-03-12T10:09:56.548Z,6.30
2023-03-12T10:12:53.078Z,6.30
2023-03-12T10:15:35.236Z,6.40
2023-03-12T10:18:15.140Z,6.40
2023-03-12T10:21:06.360Z,6.60
2023-03-12T10:23:56.074Z,6.70
2023-03-12T10:26:26.132Z,6.90
2023-03-12T10:29:06.145Z,7.10
2023-03-12T10:31:45.477Z,7.10
2023-03-12T10:34:21.211Z,7.20
2023-03-12T10:36:48.123Z,7.40
2023-03-12T10:39:18.058Z,7.50
2023-03-12T10:41:47.052Z,7.70
2023-03-12T10:44:23.593Z,8.10
2023-03-12T10:46:57.130Z,8.70
2023-03-12T10:49:26.676Z,9.40
2023-03-12T10:51:54.422Z,9.70
2023-03-12T10:54:26.962Z,10.00
2023-03-12T10:56:53.721Z,10.10
2023-03-12T10:59:22.612Z,10.10
2023-03-12T11:01:51.838Z,10.20
2023-03-12T11:04:23.404Z,10.00
2023-03-12T11:07:12.955Z,10.00
2023-03-12T11:09:39.719Z,10.10
2023-03-12T11:12:24.504Z,10.20
2023-03-12T11:14:51.419Z,10.30
2023-03-12T11:17:24.820Z,10.50
2023-03-12T11:19:52.248Z,10.50
2023-03-12T11:22:34.921Z,10.70
2023-03-12T11:25:06.156Z,11.10
2023-03-12T11:27:43.281Z,11.50
2023-03-12T11:30:15.464Z,11.80
2023-03-12T11:32:46.636Z,11.90
2023-03-12T11:35:16.926Z,12.00
2023-03-12T11:38:00.186Z,11.80
2023-03-12T11:40:47.696Z,11.80
2023-03-12T11:43:43.562Z,11.40
2023-03-12T11:46:23.137Z,11.40
2023-03-12T11:48:49.980Z,11.50
2023-03-12T11:51:33.642Z,11.60
2023-03-12T11:54:16.951Z,11.70
2023-03-12T11:56:49.058Z,11.40
2023-03-12T11:59:37.738Z,11.30
2023-03-12T12:02:21.087Z,11.00
2023-03-12T12:05:03.171Z,11.10
2023-03-12T12:07:41.338Z,11.20
2023-03-12T12:10:33.110Z,11.20
2023-03-12T12:13:15.176Z,11.30
2023-03-12T12:16:12.970Z,11.30
2023-03-12T12:18:48.678Z,11.20
2023-03-12T12:21:27.172Z,11.20
2023-03-12T12:24:06.957Z,11.50
2023-03-12T12:26:49.240Z,11.70
2023-03-12T12:29:49.058Z,11.70
2023-03-12T12:32:34.519Z,11.60
2023-03-12T12:35:19.898Z,11.70
2023-03-12T12:37:58.548Z,11.60
2023-03-12T12:40:31.238Z,11.70
2023-03-12T12:43:03.369Z,11.80
2023-03-12T12:45:31.078Z,11.90
2023-03-12T12:48:07.387Z,11.80
2023-03-12T12:50:39.956Z,11.70
2023-03-12T12:53:25.490Z,11.80
2023-03-12T12:56:01.735Z,11.80
2023-03-12T12:58:59.636Z,11.70
2023-03-12T13:01:27.973Z,11.60
2023-03-12T13:04:02.957Z,11.60
2023-03-12T13:07:02.086Z,11.50
2023-03-12T13:09:46.339Z,11.60
2023-03-12T13:12:14.373Z,11.80
2023-03-12T13:14:43.582Z,12.00
2023-03-12T13:17:41.345Z,12.00
2023-03-12T13:20:15.202Z,12.20
2023-03-12T13:23:01.350Z,12.00
2023-03-12T13:25:40.215Z,11.80
2023-03-12T13:28:35.249Z,11.70
2023-03-12T13:31:19.073Z,11.70
2023-03-12T13:33:48.651Z,11.60
2023-03-12T13:36:16.582Z,11.50
2023-03-12T13:38:59.848Z,11.60
2023-03-12T13:41:46.970Z,11.50
2023-03-12T13:44:31.148Z,11.60
2023-03-12T13:47:03.101Z,11.80
2023-03-12T13:49:43.493Z,11.60
2023-03-12T13:52:22.739Z,11.60
2023-03-12T13:55:08.499Z,11.80
2023-03-12T13:57:43.340Z,12.00
2023-03-12T14:00:27.688Z,11.90
2023-03-12T14:02:59.986Z,11.70
2023-03-12T14:05:28.920Z,11.80
2023-03-12T14:08:11.143Z,11.60
2023-03-12T14:10:59.467Z,11.70
2023-03-12T14:13:42.496Z,11.60
2023-03-12T14:16:36.200Z,11.60
2023-03-12T14:19:05.017Z,11.60
2023-03-12T14:21:36.533Z,11.60
2023-03-12T14:24:07.365Z,11.60
2023-03-12T14:26:36.835Z,11.70
2023-03-12T14:29:15.057Z,11.90
2023-03-12T14:31:43.333Z,12.10
2023-03-12T14:34:20.574Z,12.20
2023-03-12T14:36:50.556Z,12.30
2023-03-12T14:39:27.016Z,12.70
2023-03-12T14:42:00.390Z,12.90
2023-03-12T14:44:30.603Z,13.00
2023-03-12T14:47:02.443Z,12.70
2023-03-12T14:49:31.042Z,12.90
2023-03-12T14:51:57.931Z,13.20
2023-03-12T14:54:27.850Z,13.10
2023-03-12T14:56:54.738Z,13.30
2023-03-12T14:59:27.885Z,13.40
2023-03-12T15:02:01.147Z,13.20
2023-03-12T15:04:29.820Z,13.10
2023-03-12T15:06:59.208Z,13.00
2023-03-12T15:09:28.021Z,12.90
2023-03-12T15:12:01.255Z,12.70
2023-03-12T15:14:32.444Z,12.70
2023-03-12T15:17:00.569Z,12.50
2023-03-12T15:19:32.968Z,12.50
2023-03-12T15:22:00.514Z,12.30
2023-03-12T15:24:30.501Z,12.30
2023-03-12T15:26:57.412Z,12.20
2023-03-12T15:29:27.688Z,12.20
2023-03-12T15:31:58.117Z,12.10
2023-03-12T15:34:32.181Z,11.90
2023-03-12T15:37:01.620Z,12.10
2023-03-12T15:39:33.510Z,11.80
2023-03-12T15:42:07.151Z,11.80
2023-03-12T15:44:45.340Z,11.70
2023-03-12T15:47:16.541Z,11.50
2023-03-12T15:49:44.144Z,11.40
2023-03-12T15:52:28.495Z,11.40
2023-03-12T15:55:14.014Z,11.40
2023-03-12T15:57:50.397Z,11.20
2023-03-12T16:00:19.266Z,11.30
2023-03-12T16:02:50.372Z,11.30
2023-03-12T16:05:18.754Z,11.20
2023-03-12T16:07:45.598Z,11.20
2023-03-12T16:10:16.713Z,11.20
2023-03-12T16:12:44.645Z,11.20
2023-03-12T16:15:29.764Z,11.20
2023-03-12T16:17:56.980Z,11.10
2023-03-12T16:20:23.923Z,11.10
2023-03-12T16:22:50.963Z,11.00
2023-03-12T16:25:17.811Z,11.00
2023-03-12T16:27:49.996Z,11.10
2023-03-12T16:30:23.544Z,11.00
2023-03-12T16:32:50.391Z,10.90
2023-03-12T16:35:18.776Z,10.90
2023-03-12T16:37:46.888Z,10.80
2023-03-12T16:40:21.215Z,10.80
2023-03-12T16:43:02.542Z,10.80
2023-03-12T16:45:30.761Z,10.80
2023-03-12T16:48:00.629Z,10.80
2023-03-12T16:50:28.250Z,10.70
2023-03-12T16:52:55.563Z,10.70
2023-03-12T16:55:26.575Z,10.70
2023-03-12T16:57:57.887Z,10.60
2023-03-12T17:00:28.125Z,10.60
2023-03-12T17:02:57.934Z,10.50
2023-03-12T17:05:26.649Z,10.50
2023-03-12T17:07:54.309Z,10.50
2023-03-12T17:10:22.180Z,10.40
2023-03-12T17:12:49.999Z,10.30
2023-03-12T17:15:26.856Z,10.30
2023-03-12T17:17:55.784Z,10.20
2023-03-12T17:20:24.230Z,10.10
2023-03-12T17:22:51.335Z,10.10
2023-03-12T17:25:27.349Z,9.90
2023-03-12T17:27:56.573Z,9.80
2023-03-12T17:30:24.542Z,10.00
2023-03-12T17:32:52.531Z,10.00
2023-03-12T17:35:20.426Z,10.00
2023-03-12T17:37:48.638Z,10.00
2023-03-12T17:40:16.481Z,9.90
2023-03-12T17:42:43.309Z,9.80
2023-03-12T17:45:10.998Z,9.70
2023-03-12T17:47:38.179Z,9.70
2023-03-12T17:50:06.227Z,9.80
2023-03-12T17:52:33.544Z,9.70
2023-03-12T17:55:00.690Z,9.70
2023-03-12T17:57:28.194Z,9.50
2023-03-12T17:59:55.420Z,9.70
2023-03-12T18:02:22.647Z,9.70
2023-03-12T18:04:49.512Z,9.80
2023-03-12T18:07:16.481Z,9.60
2023-03-12T18:09:43.452Z,9.50
2023-03-12T18:12:12.398Z,9.40
2023-03-12T18:14:39.601Z,9.20
2023-03-12T18:17:06.453Z,9.30
2023-03-12T18:19:35.306Z,9.20
2023-03-12T18:22:02.777Z,9.30
2023-03-12T18:24:30.055Z,9.40
2023-03-12T18:26:57.211Z,9.50
2023-03-12T18:29:24.200Z,9.60
2023-03-12T18:31:51.172Z,9.60
2023-03-12T18:34:18.344Z,9.50
2023-03-12T18:36:45.372Z,9.50
2023-03-12T18:39:12.280Z,9.30
2023-03-12T18:41:41.922Z,9.30
2023-03-12T18:44:09.089Z,9.30
2023-03-12T18:46:36.051Z,9.30
2023-03-12T18:49:05.793Z,9.50
2023-03-12T18:51:32.620Z,9.50
2023-03-12T18:53:59.677Z,9.50
2023-03-12T18:56:27.998Z,9.60
2023-03-12T18:58:55.223Z,9.80
2023-03-12T19:01:22.258Z,9.80
2023-03-12T19:03:49.186Z,9.70
2023-03-12T19:06:17.050Z,9.90
2023-03-12T19:08:44.029Z,10.00
2023-03-12T19:11:13.763Z,9.90
2023-03-12T19:13:42.350Z,9.90
2023-03-12T19:16:11.756Z,9.90
2023-03-12T19:18:39.645Z,9.80
2023-03-12T19:21:08.634Z,9.80
2023-03-12T19:23:35.816Z,9.80
2023-03-12T19:26:03.841Z,9.90
2023-03-12T19:28:31.444Z,9.90
2023-03-12T19:31:08.996Z,9.80
2023-03-12T19:33:36.598Z,9.80
2023-03-12T19:36:04.687Z,10.00
2023-03-12T19:38:31.689Z,10.00
2023-03-12T19:40:59.295Z,10.00
2023-03-12T19:43:26.799Z,10.10
2023-03-12T19:45:55.789Z,10.00
2023-03-12T19:48:25.300Z,10.10
2023-03-12T19:50:53.801Z,10.20
2023-03-12T19:53:21.057Z,10.30
2023-03-12T19:55:49.722Z,10.30
2023-03-12T19:58:18.182Z,10.30
2023-03-12T20:00:45.853Z,10.30
2023-03-12T20:03:13.296Z,10.20
2023-03-12T20:05:44.322Z,10.10
2023-03-12T20:08:12.675Z,10.00
2023-03-12T20:10:40.728Z,9.90
2023-03-12T20:13:12.894Z,9.80
2023-03-12T20:15:46.337Z,9.80
2023-03-12T20:18:15.214Z,9.70
2023-03-12T20:20:42.993Z,9.80
2023-03-12T20:23:12.170Z,9.90
2023-03-12T20:25:41.622Z,9.80
2023-03-12T20:28:11.705Z,9.80
2023-03-12T20:30:41.401Z,9.80
2023-03-12T20:33:09.208Z,9.80
2023-03-12T20:35:36.666Z,9.90
2023-03-12T20:38:04.662Z,9.80
2023-03-12T20:40:31.775Z,9.80
2023-03-12T20:42:58.934Z,9.80
2023-03-12T20:45:26.965Z,9.80
2023-03-12T20:47:54.281Z,9.90
2023-03-12T20:50:21.969Z,9.80
2023-03-12T20:52:48.912Z,9.60
2023-03-12T20:55:15.995Z,9.80
2023-03-12T20:57:43.154Z,9.80
2023-03-12T21:00:10.633Z,9.70
2023-03-12T21:02:37.571Z,9.60
2023-03-12T21:05:04.758Z,9.40
2023-03-12T21:07:31.688Z,9.40
2023-03-12T21:09:58.566Z,9.30
2023-03-12T21:12:25.719Z,9.30
2023-03-12T21:14:52.607Z,9.30
2023-03-12T21:17:19.400Z,9.40
2023-03-12T21:19:46.602Z,9.30
2023-03-12T21:22:13.696Z,9.30
2023-03-12T21:24:40.742Z,9.20
2023-03-12T21:27:11.384Z,9.50
2023-03-12T21:29:38.578Z,9.30
2023-03-12T21:32:05.657Z,9.20
2023-03-12T21:34:32.796Z,9.10
2023-03-12T21:36:59.889Z,9.10
2023-03-12T21:39:27.311Z,9.10
2023-03-12T21:41:54.453Z,9.20
2023-03-12T21:44:21.572Z,9.40
2023-03-12T21:46:48.429Z,9.30
2023-03-12T21:49:18.266Z,9.40
2023-03-12T21:51:45.579Z,9.30
2023-03-12T21:54:12.600Z,9.30
2023-03-12T21:56:41.659Z,9.30
2023-03-12T21:59:08.435Z,9.40
2023-03-12T22:01:35.337Z,9.40
2023-03-12T22:04:03.266Z,9.50
2023-03-12T22:06:30.160Z,9.40
2023-03-12T22:08:57.072Z,9.30
2023-03-12T22:11:23.946Z,9.10
2023-03-12T22:13:50.846Z,9.10
2023-03-12T22:16:17.832Z,9.10
2023-03-12T22:18:45.899Z,9.10
2023-03-12T22:21:18.520Z,9.00
2023-03-12T22:23:47.930Z,9.00
2023-03-12T22:26:15.087Z,9.00
2023-03-12T22:28:42.498Z,8.80
2023-03-12T22:31:10.047Z,8.80
2023-03-12T22:33:37.251Z,8.80
2023-03-12T22:36:07.594Z,8.70
2023-03-12T22:38:36.603Z,8.70
2023-03-12T22:41:20.879Z,8.80
2023-03-12T22:43:49.051Z,8.80
2023-03-12T22:46:17.344Z,8.80
2023-03-12T22:48:45.339Z,8.70
2023-03-12T22:51:12.701Z,8.60
2023-03-12T22:53:39.969Z,8.90
2023-03-12T22:56:09.724Z,8.80
2023-03-12T22:58:37.128Z,8.70
2023-03-12T23:01:07.658Z,8.60
2023-03-12T23:03:35.988Z,8.70
2023-03-12T23:06:04.008Z,8.80
2023-03-12T23:08:31.234Z,8.60
2023-03-12T23:11:00.602Z,8.70
2023-03-12T23:13:29.323Z,8.70
2023-03-12T23:16:03.162Z,8.70
2023-03-12T23:18:30.101Z,8.60
2023-03-12T23:21:02.596Z,8.70
2023-03-12T23:23:30.012Z,8.70
2023-03-12T23:25:59.333Z,8.50
2023-03-12T23:28:27.620Z,8.60
2023-03-12T23:30:57.638Z,8.60
2023-03-12T23:33:25.812Z,8.50
2023-03-12T23:35:55.494Z,8.40
2023-03-12T23:38:22.605Z,8.40
2023-03-12T23:40:49.647Z,8.40
2023-03-12T23:43:16.608Z,8.30
2023-03-12T23:45:43.532Z,8.20
2023-03-12T23:48:10.742Z,8.10
2023-03-12T23:50:37.909Z,8.10
2023-03-12T23:53:04.686Z,8.00
2023-03-12T23:55:31.554Z,7.90
2023-03-12T23:57:58.371Z,7.80
